createdAt,value
2023-03-25T00:00:32.810Z,99825.47
2023-03-25T00:03:37.451Z,99825.59
2023-03-25T00:06:39.141Z,99827.47
2023-03-25T00:09:40.528Z,99826.50
2023-03-25T00:12:42.601Z,99831.97
2023-03-25T00:15:47.512Z,99833.84
2023-03-25T00:18:49.832Z,99838.50
2023-03-25T00:21:52.102Z,99843.09
2023-03-25T00:24:53.639Z,99840.22
2023-03-25T00:27:55.015Z,99843.78
2023-03-25T00:31:01.018Z,99839.63
2023-03-25T00:34:02.651Z,99842.44
2023-03-25T00:37:04.034Z,99844.25
2023-03-25T00:40:06.167Z,99837.84
2023-03-25T00:43:07.638Z,99832.63
2023-03-25T00:46:09.285Z,99824.97
2023-03-25T00:49:12.127Z,99826.00
2023-03-25T00:52:14.213Z,99839.06
2023-03-25T00:55:16.010Z,99833.72
2023-03-25T00:58:17.443Z,99828.28
2023-03-25T01:01:27.141Z,99824.91
2023-03-25T01:04:29.665Z,99821.59
2023-03-25T01:07:32.643Z,99816.09
2023-03-25T01:10:37.595Z,99815.28
2023-03-25T01:13:39.015Z,99807.41
2023-03-25T01:16:40.449Z,99798.50
2023-03-25T01:19:42.110Z,99794.88
2023-03-25T01:22:43.649Z,99791.44
2023-03-25T01:25:45.162Z,99795.16
2023-03-25T01:28:46.552Z,99801.94
2023-03-25T01:31:48.851Z,99806.13
2023-03-25T01:34:50.279Z,99800.63
2023-03-25T01:37:54.534Z,99809.94
2023-03-25T01:40:57.186Z,99806.75
2023-03-25T01:44:02.483Z,99809.72
2023-03-25T01:47:06.712Z,99808.97
2023-03-25T01:50:08.627Z,99807.25
2023-03-25T01:53:10.567Z,99809.56
2023-03-25T01:56:15.826Z,99834.34
2023-03-25T01:59:20.419Z,99842.56
2023-03-25T02:02:25.380Z,99845.25
2023-03-25T02:05:35.797Z,99845.59
2023-03-25T02:08:41.528Z,99832.50
2023-03-25T02:11:43.072Z,99824.22
2023-03-25T02:14:44.558Z,99815.78
2023-03-25T02:17:46.549Z,99803.91
2023-03-25T02:21:23.168Z,99806.75
2023-03-25T02:24:53.959Z,99803.53
2023-03-25T02:28:10.148Z,99805.81
2023-03-25T02:31:38.536Z,99810.34
2023-03-25T02:35:01.855Z,99817.78
2023-03-25T02:38:28.163Z,99826.06
2023-03-25T02:41:48.172Z,99833.97
2023-03-25T02:44:53.029Z,99837.59
2023-03-25T02:48:00.888Z,99844.47
2023-03-25T02:51:10.965Z,99842.75
2023-03-25T02:54:13.913Z,99839.66
2023-03-25T02:57:19.014Z,99841.38
2023-03-25T03:00:28.460Z,99836.63
2023-03-25T03:03:29.899Z,99837.72
2023-03-25T03:06:39.900Z,99837.72
2023-03-25T03:09:48.647Z,99841.25
2023-03-25T03:13:05.445Z,99844.91
2023-03-25T03:16:21.852Z,99830.28
2023-03-25T03:19:38.266Z,99832.91
2023-03-25T03:22:46.797Z,99836.00
2023-03-25T03:25:54.083Z,99830.06
2023-03-25T03:29:00.889Z,99837.94
2023-03-25T03:32:07.363Z,99831.78
2023-03-25T03:35:20.261Z,99830.78
2023-03-25T03:38:25.998Z,99837.00
2023-03-25T03:41:29.138Z,99848.41
2023-03-25T03:44:36.602Z,99857.81
2023-03-25T03:47:43.631Z,99857.94
2023-03-25T03:50:53.411Z,99865.97
2023-03-25T03:54:00.500Z,99846.75
2023-03-25T03:57:08.386Z,99856.31
2023-03-25T04:00:23.873Z,99849.53
2023-03-25T04:03:39.122Z,99851.78
2023-03-25T04:07:01.254Z,99856.31
2023-03-25T04:10:14.570Z,99856.31
2023-03-25T04:13:17.381Z,99848.28
2023-03-25T04:16:19.063Z,99844.88
2023-03-25T04:19:20.535Z,99838.63
2023-03-25T04:22:22.124Z,99843.72
2023-03-25T04:25:25.228Z,99844.78
2023-03-25T04:28:26.681Z,99842.25
2023-03-25T04:31:30.968Z,99836.03
2023-03-25T04:34:32.476Z,99842.81
2023-03-25T04:37:36.796Z,99832.59
2023-03-25T04:40:40.464Z,99842.97
2023-03-25T04:43:44.990Z,99834.19
2023-03-25T04:46:46.614Z,99842.41
2023-03-25T04:49:48.059Z,99830.28
2023-03-25T04:52:50.985Z,99827.72
2023-03-25T04:55:52.956Z,99833.84
2023-03-25T04:58:54.517Z,99833.75
2023-03-25T05:01:56.504Z,99833.84
2023-03-25T05:05:02.111Z,99827.06
2023-03-25T05:08:03.645Z,99835.47
2023-03-25T05:11:05.273Z,99839.13
2023-03-25T05:14:07.137Z,99844.47
2023-03-25T05:17:08.524Z,99841.00
2023-03-25T05:20:11.411Z,99841.09
2023-03-25T05:23:17.646Z,99846.53
2023-03-25T05:26:20.594Z,99857.16
2023-03-25T05:29:22.606Z,99868.59
2023-03-25T05:32:34.833Z,99867.03
2023-03-25T05:35:37.320Z,99885.38
2023-03-25T05:38:44.195Z,99879.53
2023-03-25T05:41:45.996Z,99880.78
2023-03-25T05:44:50.993Z,99881.94
2023-03-25T05:47:52.477Z,99887.06
2023-03-25T05:50:56.507Z,99890.69
2023-03-25T05:53:59.154Z,99900.50
2023-03-25T05:57:00.603Z,99912.53
2023-03-25T06:00:03.121Z,99910.38
2023-03-25T06:03:13.111Z,99907.78
2023-03-25T06:06:18.939Z,99910.22
2023-03-25T06:09:20.737Z,99910.22
2023-03-25T06:12:23.882Z,99912.47
2023-03-25T06:15:33.713Z,99917.56
2023-03-25T06:18:36.395Z,99920.25
2023-03-25T06:21:38.204Z,99925.53
2023-03-25T06:24:41.119Z,99925.19
2023-03-25T06:27:42.671Z,99912.25
2023-03-25T06:30:48.167Z,99922.59
2023-03-25T06:33:51.100Z,99923.63
2023-03-25T06:36:54.310Z,99920.78
2023-03-25T06:39:56.433Z,99922.38
2023-03-25T06:42:59.607Z,99914.94
2023-03-25T06:46:26.674Z,99926.84
2023-03-25T06:49:44.777Z,99931.78
2023-03-25T06:52:46.268Z,99927.63
2023-03-25T06:55:47.927Z,99929.94
2023-03-25T06:58:49.500Z,99923.94
2023-03-25T07:01:51.096Z,99923.91
2023-03-25T07:04:52.678Z,99912.38
2023-03-25T07:07:54.163Z,99922.81
2023-03-25T07:11:01.474Z,99923.75
2023-03-25T07:14:02.923Z,99918.22
2023-03-25T07:17:04.732Z,99914.63
2023-03-25T07:20:06.872Z,99901.91
2023-03-25T07:23:08.384Z,99900.50
2023-03-25T07:26:09.801Z,99899.56
2023-03-25T07:29:11.197Z,99893.25
2023-03-25T07:32:13.504Z,99893.22
2023-03-25T07:35:15.293Z,99885.41
2023-03-25T07:38:16.732Z,99900.19
2023-03-25T07:41:18.143Z,99890.94
2023-03-25T07:44:36.117Z,99888.50
2023-03-25T07:47:37.768Z,99871.56
2023-03-25T07:50:39.262Z,99887.81
2023-03-25T07:53:42.956Z,99888.63
2023-03-25T07:56:44.409Z,99888.38
2023-03-25T07:59:45.995Z,99884.81
2023-03-25T08:02:47.540Z,99895.34
2023-03-25T08:05:49.065Z,99885.78
2023-03-25T08:08:50.718Z,99890.31
2023-03-25T08:11:52.178Z,99885.91
2023-03-25T08:14:53.567Z,99892.41
2023-03-25T08:17:55.095Z,99898.06
2023-03-25T08:20:56.501Z,99902.63
2023-03-25T08:23:58.485Z,99905.06
2023-03-25T08:27:00.642Z,99899.75
2023-03-25T08:30:17.094Z,99903.13
2023-03-25T08:33:18.538Z,99914.22
2023-03-25T08:36:23.277Z,99917.78
2023-03-25T08:39:30.356Z,99922.19
2023-03-25T08:42:31.771Z,99932.94
2023-03-25T08:45:34.762Z,99929.50
2023-03-25T08:48:36.426Z,99935.69
2023-03-25T08:51:37.877Z,99952.56
2023-03-25T08:54:39.395Z,99948.69
2023-03-25T08:57:42.329Z,99955.09
2023-03-25T09:00:43.827Z,99949.25
2023-03-25T09:03:46.640Z,99935.31
2023-03-25T09:07:11.108Z,99943.88
2023-03-25T09:10:12.407Z,99932.00
2023-03-25T09:13:13.966Z,99939.50
2023-03-25T09:16:15.560Z,99932.22
2023-03-25T09:19:18.096Z,99920.94
2023-03-25T09:22:19.482Z,99920.00
2023-03-25T09:25:21.743Z,99921.56
2023-03-25T09:28:24.169Z,99916.66
2023-03-25T09:31:26.141Z,99911.25
2023-03-25T09:34:28.150Z,99899.47
2023-03-25T09:37:29.533Z,99909.88
2023-03-25T09:40:31.699Z,99907.72
2023-03-25T09:43:39.261Z,99905.63
2023-03-25T09:46:41.031Z,99894.47
2023-03-25T09:49:53.529Z,99900.34
2023-03-25T09:53:01.950Z,99899.47
2023-03-25T09:56:07.645Z,99894.94
2023-03-25T09:59:18.199Z,99903.25
2023-03-25T10:02:31.866Z,99894.06
2023-03-25T10:05:50.571Z,99901.56
2023-03-25T10:09:07.315Z,99913.13
2023-03-25T10:12:27.088Z,99893.47
2023-03-25T10:15:46.503Z,99904.19
2023-03-25T10:19:17.289Z,99887.94
2023-03-25T10:22:28.784Z,99893.22
2023-03-25T10:25:35.063Z,99866.53
2023-03-25T10:28:43.535Z,99881.16
2023-03-25T10:32:12.565Z,99882.97
2023-03-25T10:35:21.098Z,99874.16
2023-03-25T10:38:24.438Z,99876.03
2023-03-25T10:41:30.863Z,99872.38
2023-03-25T10:44:32.299Z,99870.34
2023-03-25T10:47:37.883Z,99872.44
2023-03-25T10:50:41.874Z,99871.47
2023-03-25T10:53:47.567Z,99876.81
2023-03-25T10:56:55.412Z,99852.09
2023-03-25T11:00:17.625Z,99843.84
2023-03-25T11:03:34.447Z,99833.66
2023-03-25T11:06:41.416Z,99823.44
2023-03-25T11:09:43.020Z,99845.53
2023-03-25T11:12:48.265Z,99838.72
2023-03-25T11:15:53.866Z,99856.97
2023-03-25T11:18:55.662Z,99850.81
2023-03-25T11:22:01.647Z,99866.03
2023-03-25T11:25:07.283Z,99872.81
2023-03-25T11:28:27.362Z,99878.81
2023-03-25T11:31:33.281Z,99872.25
2023-03-25T11:34:41.970Z,99876.50
2023-03-25T11:37:47.884Z,99857.50
2023-03-25T11:40:52.868Z,99841.00
2023-03-25T11:43:54.457Z,99830.56
2023-03-25T11:47:05.480Z,99826.63
2023-03-25T11:50:17.653Z,99870.41
2023-03-25T11:53:21.308Z,99891.34
2023-03-25T11:56:28.772Z,99920.19
2023-03-25T11:59:42.687Z,99901.69
2023-03-25T12:02:44.239Z,99898.44
2023-03-25T12:06:05.023Z,99904.78
2023-03-25T12:09:11.717Z,99906.44
2023-03-25T12:12:32.169Z,99890.69
2023-03-25T12:15:51.569Z,99891.13
2023-03-25T12:19:16.221Z,99884.94
2023-03-25T12:22:48.959Z,99886.78
2023-03-25T12:26:04.435Z,99885.81
2023-03-25T12:29:05.787Z,99878.69
2023-03-25T12:32:16.277Z,99872.44
2023-03-25T12:35:47.771Z,99868.94
2023-03-25T12:39:06.205Z,99868.78
2023-03-25T12:42:27.627Z,99858.72
2023-03-25T12:45:59.955Z,99867.84
2023-03-25T12:49:10.808Z,99870.19
2023-03-25T12:52:33.230Z,99861.81
2023-03-25T12:55:53.361Z,99857.78
2023-03-25T12:59:09.702Z,99862.75
2023-03-25T13:02:19.911Z,99853.31
2023-03-25T13:05:30.856Z,99856.34
2023-03-25T13:08:56.658Z,99853.16
2023-03-25T13:12:09.105Z,99856.75
2023-03-25T13:15:46.217Z,99868.25
2023-03-25T13:19:11.326Z,99857.38
2023-03-25T13:22:20.640Z,99855.09
2023-03-25T13:25:36.576Z,99847.00
2023-03-25T13:28:46.736Z,99857.50
2023-03-25T13:31:49.663Z,99846.75
2023-03-25T13:35:03.714Z,99840.28
2023-03-25T13:38:24.628Z,99844.53
2023-03-25T13:41:34.213Z,99825.53
2023-03-25T13:44:42.934Z,99818.84
2023-03-25T13:47:52.735Z,99826.13
2023-03-25T13:50:56.255Z,99815.97
2023-03-25T13:54:06.875Z,99815.69
2023-03-25T13:57:27.010Z,99816.63
2023-03-25T14:01:21.365Z,99839.69
2023-03-25T14:04:42.472Z,99812.94
2023-03-25T14:08:03.573Z,99817.22
2023-03-25T14:11:16.791Z,99822.41
2023-03-25T14:14:22.235Z,99810.38
2023-03-25T14:17:23.860Z,99823.09
2023-03-25T14:20:41.349Z,99827.28
2023-03-25T14:23:44.545Z,99820.81
2023-03-25T14:26:54.155Z,99833.94
2023-03-25T14:29:58.661Z,99835.13
2023-03-25T14:33:03.766Z,99840.69
2023-03-25T14:36:06.210Z,99844.72
2023-03-25T14:39:32.056Z,99836.38
2023-03-25T14:42:42.407Z,99829.94
2023-03-25T14:46:10.304Z,99839.81
2023-03-25T14:49:22.706Z,99847.31
2023-03-25T14:52:45.214Z,99839.19
2023-03-25T14:55:47.747Z,99831.06
2023-03-25T14:58:54.863Z,99836.44
2023-03-25T15:02:04.093Z,99835.53
2023-03-25T15:05:11.823Z,99832.53
2023-03-25T15:08:17.411Z,99826.66
2023-03-25T15:11:33.479Z,99829.84
2023-03-25T15:14:38.690Z,99844.34
2023-03-25T15:17:40.100Z,99825.78
2023-03-25T15:20:42.239Z,99828.31
2023-03-25T15:23:47.908Z,99823.31
2023-03-25T15:26:49.803Z,99826.88
2023-03-25T15:30:23.929Z,99831.44
2023-03-25T15:33:44.420Z,99840.66
2023-03-25T15:37:06.543Z,99841.22
2023-03-25T15:40:14.469Z,99848.63
2023-03-25T15:43:21.993Z,99829.84
2023-03-25T15:46:37.573Z,99839.53
2023-03-25T15:50:00.234Z,99824.75
2023-03-25T15:53:06.129Z,99835.47
2023-03-25T15:56:17.335Z,99834.72
2023-03-25T15:59:30.019Z,99838.41
2023-03-25T16:02:39.366Z,99831.00
2023-03-25T16:05:47.442Z,99832.59
2023-03-25T16:08:49.951Z,99850.78
2023-03-25T16:11:51.893Z,99854.00
2023-03-25T16:14:53.341Z,99844.16
2023-03-25T16:17:56.768Z,99849.66
2023-03-25T16:21:01.585Z,99853.19
2023-03-25T16:24:07.658Z,99853.25
2023-03-25T16:27:11.826Z,99853.22
2023-03-25T16:30:19.694Z,99852.88
2023-03-25T16:33:30.328Z,99850.91
2023-03-25T16:36:31.781Z,99858.28
2023-03-25T16:39:35.448Z,99853.13
2023-03-25T16:42:37.198Z,99842.13
2023-03-25T16:45:39.318Z,99850.31
2023-03-25T16:48:47.292Z,99843.94
2023-03-25T16:51:51.862Z,99855.84
2023-03-25T16:54:53.243Z,99843.94
2023-03-25T16:57:54.807Z,99848.31
2023-03-25T17:00:57.806Z,99850.19
2023-03-25T17:04:22.080Z,99849.94
2023-03-25T17:07:27.819Z,99853.97
2023-03-25T17:10:33.051Z,99847.78
2023-03-25T17:13:42.375Z,99851.03
2023-03-25T17:16:46.290Z,99847.53
2023-03-25T17:19:51.569Z,99850.19
2023-03-25T17:22:57.779Z,99856.84
2023-03-25T17:26:07.385Z,99852.75
2023-03-25T17:29:12.525Z,99868.84
2023-03-25T17:32:17.902Z,99886.94
2023-03-25T17:35:30.274Z,99890.59
2023-03-25T17:38:38.197Z,99893.44
2023-03-25T17:41:40.256Z,99899.25
2023-03-25T17:44:45.208Z,99908.88
2023-03-25T17:47:47.164Z,99906.50
2023-03-25T17:50:54.195Z,99904.03
2023-03-25T17:53:56.449Z,99910.34
2023-03-25T17:56:57.995Z,99894.63
2023-03-25T17:59:59.469Z,99896.47
2023-03-25T18:03:01.448Z,99903.31
2023-03-25T18:06:03.575Z,99899.06
2023-03-25T18:09:24.316Z,99900.38
2023-03-25T18:12:25.773Z,99920.72
2023-03-25T18:15:27.757Z,99931.88
2023-03-25T18:18:29.147Z,99946.91
2023-03-25T18:21:30.776Z,99978.47
2023-03-25T18:24:33.736Z,100012.19
2023-03-25T18:27:43.151Z,100009.22
2023-03-25T18:30:50.913Z,99995.34
2023-03-25T18:33:53.032Z,99993.94
2023-03-25T18:36:54.500Z,100001.34
2023-03-25T18:39:56.376Z,100006.69
2023-03-25T18:42:57.786Z,100008.91
2023-03-25T18:45:59.270Z,100018.00
2023-03-25T18:49:02.588Z,100020.22
2023-03-25T18:52:04.127Z,100016.47
2023-03-25T18:55:06.025Z,100032.31
2023-03-25T18:58:20.372Z,100038.13
2023-03-25T19:01:21.926Z,100032.63
2023-03-25T19:04:23.461Z,100031.31
2023-03-25T19:07:25.021Z,100032.31
2023-03-25T19:10:29.357Z,100010.47
2023-03-25T19:13:30.755Z,100012.44
2023-03-25T19:16:32.328Z,100018.09
2023-03-25T19:19:33.794Z,100017.66
2023-03-25T19:22:35.318Z,100020.28
2023-03-25T19:25:36.943Z,100042.31
2023-03-25T19:28:38.365Z,100038.88
2023-03-25T19:31:42.292Z,100040.47
2023-03-25T19:34:51.247Z,100041.28
2023-03-25T19:37:53.002Z,100043.06
2023-03-25T19:41:20.946Z,100049.91
2023-03-25T19:44:22.457Z,100057.63
2023-03-25T19:47:23.854Z,100049.44
2023-03-25T19:50:30.374Z,100045.75
2023-03-25T19:53:31.803Z,100042.63
2023-03-25T19:56:33.197Z,100036.97
2023-03-25T19:59:36.082Z,100043.16
2023-03-25T20:02:37.697Z,100046.34
2023-03-25T20:05:39.960Z,100042.19
2023-03-25T20:08:41.340Z,100046.59
2023-03-25T20:11:42.727Z,100050.44
2023-03-25T20:14:44.222Z,100048.41
2023-03-25T20:17:47.736Z,100036.28
2023-03-25T20:20:49.190Z,100043.16
2023-03-25T20:23:50.739Z,100041.66
2023-03-25T20:26:52.322Z,100048.56
2023-03-25T20:29:54.483Z,100043.81
2023-03-25T20:32:55.932Z,100043.00
2023-03-25T20:35:57.437Z,100046.84
2023-03-25T20:38:59.333Z,100040.56
2023-03-25T20:42:01.256Z,100038.94
2023-03-25T20:45:03.008Z,100047.59
2023-03-25T20:48:06.007Z,100035.53
2023-03-25T20:51:10.320Z,100028.94
2023-03-25T20:54:15.603Z,100041.34
2023-03-25T20:57:17.143Z,100036.13
2023-03-25T21:00:18.602Z,100049.34
2023-03-25T21:03:20.044Z,100047.03
2023-03-25T21:06:24.368Z,100044.31
2023-03-25T21:09:28.127Z,100039.41
2023-03-25T21:12:42.490Z,100047.31
2023-03-25T21:15:45.947Z,100043.94
2023-03-25T21:18:49.200Z,100057.34
2023-03-25T21:21:50.717Z,100065.69
2023-03-25T21:24:52.233Z,100056.53
2023-03-25T21:27:54.056Z,100066.06
2023-03-25T21:31:19.930Z,100060.66
2023-03-25T21:34:21.962Z,100063.47
2023-03-25T21:37:23.378Z,100074.88
2023-03-25T21:40:24.843Z,100069.69
2023-03-25T21:43:27.452Z,100069.63
2023-03-25T21:46:29.101Z,100066.88
2023-03-25T21:49:30.874Z,100074.00
2023-03-25T21:52:32.282Z,100079.22
2023-03-25T21:55:34.166Z,100084.31
2023-03-25T21:58:36.596Z,100072.78
2023-03-25T22:01:41.676Z,100072.53
2023-03-25T22:04:43.319Z,100071.34
2023-03-25T22:07:44.981Z,100069.00
2023-03-25T22:10:46.387Z,100058.47
2023-03-25T22:13:49.171Z,100067.28
2023-03-25T22:16:50.695Z,100059.25
2023-03-25T22:19:52.101Z,100056.75
2023-03-25T22:22:53.770Z,100059.25
2023-03-25T22:25:55.452Z,100058.06
2023-03-25T22:29:00.554Z,100047.97
2023-03-25T22:32:06.899Z,100059.19
2023-03-25T22:35:08.824Z,100047.06
2023-03-25T22:38:10.278Z,100047.75
2023-03-25T22:41:13.653Z,100056.88
2023-03-25T22:44:17.612Z,100072.78
2023-03-25T22:47:19.021Z,100063.03
2023-03-25T22:50:20.627Z,100055.63
2023-03-25T22:53:22.884Z,100064.19
2023-03-25T22:56:25.745Z,100060.16
2023-03-25T22:59:27.151Z,100050.47
2023-03-25T23:02:28.587Z,100050.00
2023-03-25T23:05:30.173Z,100045.81
2023-03-25T23:08:37.805Z,100057.91
2023-03-25T23:11:39.248Z,100067.66
2023-03-25T23:14:42.459Z,100083.41
2023-03-25T23:17:43.924Z,100079.13
2023-03-25T23:20:48.564Z,100084.91
2023-03-25T23:23:52.746Z,100084.91
2023-03-25T23:26:55.636Z,100081.69
2023-03-25T23:29:58.183Z,100066.06
2023-03-25T23:32:59.607Z,100059.63
2023-03-25T23:36:02.763Z,100047.59
2023-03-25T23:39:07.125Z,100035.66
2023-03-25T23:42:09.023Z,100038.09
2023-03-25T23:45:10.902Z,100037.72
2023-03-25T23:48:12.436Z,100029.13
2023-03-25T23:51:20.262Z,100021.91
2023-03-25T23:54:21.816Z,100019.59
2023-03-25T23:57:23.181Z,100027.41
